Terminal Aerodrome Forecast
Issued by NWS

Home | Current Version | Previous Version | Text Only | Print | Product List | Glossary On
Versions: 1 2 3 4 5 6 7 8 9 10 11 12 13 14 15 16 17
000
FTUS43 KICT 270315 AAA
TAFRSL
TAF AMD
KRSL 270315Z 2703/2724 16009KT P6SM BKN250
     FM270500 29011KT P6SM -RA VCTS SCT050 BKN100CB
      TEMPO 2705/2707 VRB20G30KT 2SM +TSRA BKN050CB
     FM271000 11008KT P6SM SCT100 BKN250
     FM271500 17014KT P6SM SCT250
     FM271800 18020G27KT P6SM SCT250=

USA.gov is the U.S. government's official web portal to all federal, state and local government web resources and services.